createdAt,value
2022-08-28T00:00:37.235Z,21.70
2022-08-28T00:03:05.923Z,21.70
2022-08-28T00:05:35.176Z,21.70
2022-08-28T00:08:03.459Z,21.70
2022-08-28T00:10:32.075Z,21.60
2022-08-28T00:13:01.559Z,21.60
2022-08-28T00:15:33.060Z,21.60
2022-08-28T00:18:02.036Z,21.60
2022-08-28T00:20:31.748Z,21.60
2022-08-28T00:23:00.357Z,21.60
2022-08-28T00:25:30.506Z,21.60
2022-08-28T00:28:10.455Z,21.60
2022-08-28T00:30:43.598Z,21.60
2022-08-28T00:33:15.449Z,21.50
2022-08-28T00:35:44.291Z,21.50
2022-08-28T00:38:13.679Z,21.50
2022-08-28T00:40:45.460Z,21.50
2022-08-28T00:43:25.976Z,21.40
2022-08-28T00:45:54.145Z,21.40
2022-08-28T00:48:22.234Z,21.40
2022-08-28T00:51:08.014Z,21.40
2022-08-28T00:53:36.052Z,21.40
2022-08-28T00:56:12.262Z,21.40
2022-08-28T00:58:45.864Z,21.30
2022-08-28T01:01:14.917Z,21.30
2022-08-28T01:03:43.875Z,21.30
2022-08-28T01:06:12.836Z,21.30
2022-08-28T01:08:42.288Z,21.30
2022-08-28T01:11:11.886Z,21.30
2022-08-28T01:13:46.662Z,21.30
2022-08-28T01:16:16.790Z,21.30
2022-08-28T01:18:47.134Z,21.30
2022-08-28T01:21:23.765Z,21.20
2022-08-28T01:23:58.041Z,21.30
2022-08-28T01:26:27.741Z,21.20
2022-08-28T01:28:58.197Z,21.20
2022-08-28T01:31:28.071Z,21.20
2022-08-28T01:33:56.421Z,21.20
2022-08-28T01:36:24.921Z,21.20
2022-08-28T01:39:00.093Z,21.20
2022-08-28T01:41:29.548Z,21.20
2022-08-28T01:43:57.803Z,21.10
2022-08-28T01:46:25.950Z,21.10
2022-08-28T01:48:54.018Z,21.10
2022-08-28T01:51:24.642Z,21.10
2022-08-28T01:53:53.040Z,21.10
2022-08-28T01:56:22.952Z,21.10
2022-08-28T01:58:51.071Z,21.10
2022-08-28T02:01:22.587Z,21.00
2022-08-28T02:03:52.932Z,21.00
2022-08-28T02:06:21.123Z,21.00
2022-08-28T02:08:51.043Z,21.00
2022-08-28T02:11:19.113Z,21.00
2022-08-28T02:13:50.828Z,21.00
2022-08-28T02:16:19.653Z,21.00
2022-08-28T02:18:47.765Z,21.00
2022-08-28T02:21:15.885Z,21.00
2022-08-28T02:23:46.231Z,21.00
2022-08-28T02:26:15.579Z,21.00
2022-08-28T02:28:44.174Z,21.00
2022-08-28T02:31:13.740Z,20.90
2022-08-28T02:33:44.628Z,21.00
2022-08-28T02:36:14.649Z,20.90
2022-08-28T02:38:43.344Z,20.90
2022-08-28T02:41:12.106Z,20.90
2022-08-28T02:43:40.855Z,20.90
2022-08-28T02:46:09.347Z,20.90
2022-08-28T02:48:40.357Z,20.90
2022-08-28T02:51:11.392Z,20.90
2022-08-28T02:53:39.447Z,20.80
2022-08-28T02:56:08.413Z,20.80
2022-08-28T02:58:36.538Z,20.80
2022-08-28T03:01:06.955Z,20.80
2022-08-28T03:03:35.234Z,20.80
2022-08-28T03:06:07.556Z,20.80
2022-08-28T03:08:35.840Z,20.70
2022-08-28T03:11:03.954Z,20.70
2022-08-28T03:13:32.081Z,20.70
2022-08-28T03:16:00.345Z,20.70
2022-08-28T03:18:30.166Z,20.70
2022-08-28T03:20:58.351Z,20.70
2022-08-28T03:23:27.847Z,20.70
2022-08-28T03:25:58.782Z,20.70
2022-08-28T03:28:27.621Z,20.70
2022-08-28T03:30:55.775Z,20.70
2022-08-28T03:33:23.863Z,20.60
2022-08-28T03:35:52.312Z,20.50
2022-08-28T03:38:21.446Z,20.50
2022-08-28T03:40:51.708Z,20.50
2022-08-28T03:43:22.276Z,20.50
2022-08-28T03:45:54.021Z,20.50
2022-08-28T03:48:24.141Z,20.50
2022-08-28T03:50:53.325Z,20.40
2022-08-28T03:53:21.630Z,20.30
2022-08-28T03:55:51.109Z,20.30
2022-08-28T03:58:19.634Z,20.30
2022-08-28T04:00:48.110Z,20.30
2022-08-28T04:03:16.278Z,20.30
2022-08-28T04:05:45.543Z,20.30
2022-08-28T04:08:15.960Z,20.30
2022-08-28T04:10:44.602Z,20.30
2022-08-28T04:13:15.977Z,20.30
2022-08-28T04:15:44.194Z,20.30
2022-08-28T04:18:13.575Z,20.30
2022-08-28T04:20:41.699Z,20.30
2022-08-28T04:23:14.483Z,20.30
2022-08-28T04:25:42.508Z,20.30
2022-08-28T04:28:10.595Z,20.30
2022-08-28T04:30:41.803Z,20.30
2022-08-28T04:33:10.525Z,20.30
2022-08-28T04:35:38.574Z,20.40
2022-08-28T04:38:06.639Z,20.40
2022-08-28T04:40:34.992Z,20.40
2022-08-28T04:43:03.100Z,20.50
2022-08-28T04:45:31.236Z,20.50
2022-08-28T04:48:05.474Z,20.50
2022-08-28T04:50:41.798Z,20.50
2022-08-28T04:53:09.960Z,20.60
2022-08-28T04:55:53.866Z,20.60
2022-08-28T04:58:24.294Z,20.60
2022-08-28T05:00:54.372Z,20.70
2022-08-28T05:03:24.407Z,20.70
2022-08-28T05:05:55.217Z,20.70
2022-08-28T05:08:28.266Z,20.90
2022-08-28T05:10:57.966Z,21.10
2022-08-28T05:13:27.247Z,21.40
2022-08-28T05:15:55.747Z,21.70
2022-08-28T05:18:25.521Z,21.90
2022-08-28T05:20:53.647Z,22.20
2022-08-28T05:23:22.111Z,22.40
2022-08-28T05:25:53.765Z,22.40
2022-08-28T05:28:24.474Z,22.40
2022-08-28T05:30:53.426Z,22.50
2022-08-28T05:33:21.697Z,22.50
2022-08-28T05:35:51.117Z,22.50
2022-08-28T05:38:19.160Z,22.50
2022-08-28T05:40:49.928Z,22.50
2022-08-28T05:43:18.802Z,22.50
2022-08-28T05:45:46.910Z,22.40
2022-08-28T05:48:16.180Z,22.30
2022-08-28T05:50:47.618Z,22.20
2022-08-28T05:53:18.117Z,22.20
2022-08-28T05:55:46.580Z,22.10
2022-08-28T05:58:34.646Z,22.10
2022-08-28T06:01:12.469Z,22.10
2022-08-28T06:03:42.001Z,22.20
2022-08-28T06:06:11.656Z,22.20
2022-08-28T06:08:58.039Z,22.20
2022-08-28T06:11:30.414Z,22.20
2022-08-28T06:14:00.796Z,22.30
2022-08-28T06:16:30.235Z,22.30
2022-08-28T06:18:58.815Z,22.40
2022-08-28T06:21:27.038Z,22.90
2022-08-28T06:23:56.580Z,23.40
2022-08-28T06:26:24.679Z,24.00
2022-08-28T06:28:53.603Z,24.60
2022-08-28T06:31:23.549Z,25.30
2022-08-28T06:33:54.068Z,25.80
2022-08-28T06:36:22.564Z,26.40
2022-08-28T06:38:50.591Z,26.90
2022-08-28T06:41:20.267Z,27.30
2022-08-28T06:43:48.539Z,27.20
2022-08-28T06:46:16.783Z,26.80
2022-08-28T06:48:44.907Z,26.50
2022-08-28T06:51:14.454Z,26.40
2022-08-28T06:53:44.956Z,26.50
2022-08-28T06:56:21.139Z,26.70
2022-08-28T06:58:59.124Z,26.70
2022-08-28T07:01:29.405Z,26.70
2022-08-28T07:04:01.247Z,26.80
2022-08-28T07:06:32.953Z,26.80
2022-08-28T07:09:01.062Z,27.20
2022-08-28T07:11:32.270Z,27.80
2022-08-28T07:14:02.919Z,28.50
2022-08-28T07:16:33.393Z,29.20
2022-08-28T07:19:04.070Z,29.70
2022-08-28T07:21:32.650Z,30.10
2022-08-28T07:24:05.624Z,30.40
2022-08-28T07:26:34.027Z,30.70
2022-08-28T07:29:10.319Z,30.90
2022-08-28T07:31:41.828Z,31.10
2022-08-28T07:34:11.439Z,31.20
2022-08-28T07:36:40.829Z,31.30
2022-08-28T07:39:10.477Z,31.30
2022-08-28T07:41:42.443Z,31.50
2022-08-28T07:44:31.006Z,31.80
2022-08-28T07:47:04.468Z,32.10
2022-08-28T07:49:33.693Z,32.50
2022-08-28T07:52:02.123Z,32.80
2022-08-28T07:54:30.175Z,33.20
2022-08-28T07:56:58.168Z,33.40
2022-08-28T07:59:30.502Z,33.40
2022-08-28T08:02:05.245Z,33.60
2022-08-28T08:04:33.292Z,33.70
2022-08-28T08:07:03.894Z,33.90
2022-08-28T08:09:31.892Z,33.90
2022-08-28T08:12:03.762Z,34.10
2022-08-28T08:14:33.412Z,34.20
2022-08-28T08:17:07.408Z,34.40
2022-08-28T08:19:36.234Z,34.50
2022-08-28T08:22:04.316Z,34.80
2022-08-28T08:24:32.734Z,34.90
2022-08-28T08:27:02.391Z,35.20
2022-08-28T08:29:35.492Z,35.40
2022-08-28T08:32:08.514Z,35.30
2022-08-28T08:34:39.152Z,35.40
2022-08-28T08:37:07.867Z,35.50
2022-08-28T08:39:37.098Z,35.70
2022-08-28T08:42:09.312Z,35.60
2022-08-28T08:44:42.385Z,35.40
2022-08-28T08:47:16.786Z,35.30
2022-08-28T08:49:52.320Z,35.50
2022-08-28T08:52:41.188Z,35.70
2022-08-28T08:55:20.241Z,36.00
2022-08-28T08:57:52.922Z,36.10
2022-08-28T09:00:25.557Z,35.80
2022-08-28T09:03:02.096Z,35.30
2022-08-28T09:05:48.914Z,34.70
2022-08-28T09:08:35.631Z,34.30
2022-08-28T09:11:13.006Z,34.00
2022-08-28T09:13:49.966Z,33.60
2022-08-28T09:16:28.921Z,33.40
2022-08-28T09:18:58.790Z,33.20
2022-08-28T09:21:32.099Z,33.10
2022-08-28T09:24:05.690Z,33.00
2022-08-28T09:26:34.362Z,32.90
2022-08-28T09:29:06.189Z,32.90
2022-08-28T09:31:38.054Z,33.00
2022-08-28T09:34:33.388Z,33.30
2022-08-28T09:37:04.474Z,33.80
2022-08-28T09:39:35.647Z,33.80
2022-08-28T09:42:29.602Z,33.90
2022-08-28T09:45:02.237Z,33.80
2022-08-28T09:47:48.769Z,34.00
2022-08-28T09:50:38.875Z,33.90
2022-08-28T09:53:20.963Z,33.80
2022-08-28T09:56:16.553Z,33.90
2022-08-28T09:58:47.340Z,34.20
2022-08-28T10:01:40.287Z,34.00
2022-08-28T10:04:26.847Z,33.70
2022-08-28T10:06:58.072Z,33.40
2022-08-28T10:09:32.492Z,33.10
2022-08-28T10:12:08.268Z,33.00
2022-08-28T10:14:57.314Z,33.30
2022-08-28T10:17:33.648Z,33.20
2022-08-28T10:20:11.323Z,33.20
2022-08-28T10:28:43.971Z,33.00
2022-08-28T10:31:20.287Z,32.90
2022-08-28T10:34:07.030Z,32.80
2022-08-28T10:36:36.865Z,32.80
2022-08-28T10:39:18.936Z,32.60
2022-08-28T10:41:50.456Z,32.40
2022-08-28T10:44:24.038Z,32.20
2022-08-28T10:46:55.573Z,32.00
2022-08-28T10:49:27.424Z,31.80
2022-08-28T10:52:00.473Z,31.80
2022-08-28T10:54:33.927Z,31.70
2022-08-28T10:57:37.315Z,31.60
2022-08-28T11:00:11.931Z,31.50
2022-08-28T11:02:42.968Z,31.30
2022-08-28T11:05:11.799Z,31.30
2022-08-28T11:07:45.940Z,31.20
2022-08-28T11:10:21.014Z,31.10
2022-08-28T11:12:52.101Z,31.10
2022-08-28T11:15:44.346Z,30.90
2022-08-28T11:18:49.690Z,30.40
2022-08-28T11:21:26.610Z,30.30
2022-08-28T11:24:02.400Z,30.20
2022-08-28T11:26:35.391Z,30.20
2022-08-28T11:29:04.149Z,30.00
2022-08-28T11:31:38.878Z,29.80
2022-08-28T11:34:07.765Z,29.70
2022-08-28T11:37:02.720Z,29.60
2022-08-28T11:39:32.173Z,29.50
2022-08-28T11:42:37.304Z,29.40
2022-08-28T11:45:06.448Z,29.40
2022-08-28T11:47:52.120Z,29.50
2022-08-28T11:50:30.805Z,29.70
2022-08-28T11:53:32.862Z,29.90
2022-08-28T11:56:36.899Z,30.00
2022-08-28T11:59:22.092Z,29.90
2022-08-28T12:01:51.395Z,29.90
2022-08-28T12:04:21.391Z,29.80
2022-08-28T12:06:51.683Z,29.90
2022-08-28T12:09:43.750Z,30.00
2022-08-28T12:12:51.478Z,30.10
2022-08-28T12:15:41.705Z,30.00
2022-08-28T12:18:17.074Z,30.10
2022-08-28T12:21:01.114Z,30.20
2022-08-28T12:23:37.144Z,30.30
2022-08-28T12:26:07.973Z,30.30
2022-08-28T12:28:45.379Z,30.30
2022-08-28T12:32:01.834Z,30.30
2022-08-28T12:34:41.858Z,30.30
2022-08-28T12:37:28.929Z,30.40
2022-08-28T12:40:02.468Z,30.50
2022-08-28T12:42:34.498Z,30.50
2022-08-28T12:45:07.006Z,30.50
2022-08-28T12:47:37.157Z,30.50
2022-08-28T12:50:27.656Z,30.50
2022-08-28T12:52:58.607Z,30.50
2022-08-28T12:55:27.569Z,30.30
2022-08-28T12:57:56.445Z,30.30
2022-08-28T13:00:32.046Z,30.40
2022-08-28T13:03:02.105Z,30.40
2022-08-28T13:05:34.053Z,30.30
2022-08-28T13:08:05.194Z,30.40
2022-08-28T13:10:37.558Z,30.20
2022-08-28T13:13:10.913Z,30.10
2022-08-28T13:15:50.714Z,30.20
2022-08-28T13:18:51.413Z,30.30
2022-08-28T13:21:35.195Z,30.40
2022-08-28T13:24:26.170Z,30.50
2022-08-28T13:27:03.035Z,30.50
2022-08-28T13:29:31.685Z,30.60
2022-08-28T13:32:05.448Z,30.40
2022-08-28T13:34:36.048Z,30.50
2022-08-28T13:37:15.015Z,30.40
2022-08-28T13:39:49.022Z,30.40
2022-08-28T13:42:18.942Z,30.40
2022-08-28T13:44:50.497Z,30.40
2022-08-28T13:47:19.998Z,30.20
2022-08-28T13:49:48.196Z,30.10
2022-08-28T13:52:16.379Z,30.20
2022-08-28T13:54:45.496Z,30.10
2022-08-28T13:57:14.572Z,30.00
2022-08-28T13:59:45.693Z,29.80
2022-08-28T14:02:33.098Z,29.80
2022-08-28T14:05:02.869Z,29.70
2022-08-28T14:07:30.904Z,29.60
2022-08-28T14:09:59.434Z,29.50
2022-08-28T14:12:32.863Z,29.40
2022-08-28T14:15:02.115Z,29.40
2022-08-28T14:17:30.369Z,29.30
2022-08-28T14:19:59.801Z,29.30
2022-08-28T14:22:30.921Z,29.30
2022-08-28T14:24:58.970Z,29.20
2022-08-28T14:27:27.005Z,29.10
2022-08-28T14:29:55.072Z,29.00
2022-08-28T14:32:23.131Z,29.00
2022-08-28T14:34:51.583Z,29.00
2022-08-28T14:37:19.650Z,29.00
2022-08-28T14:39:50.475Z,29.10
2022-08-28T14:42:18.660Z,29.10
2022-08-28T14:44:46.713Z,29.10
2022-08-28T14:47:14.757Z,29.00
2022-08-28T14:49:43.521Z,29.00
2022-08-28T14:52:11.796Z,28.90
2022-08-28T14:54:40.674Z,28.80
2022-08-28T14:57:11.811Z,28.60
2022-08-28T14:59:39.877Z,28.40
2022-08-28T15:02:08.727Z,28.20
2022-08-28T15:04:38.014Z,28.00
2022-08-28T15:07:08.146Z,27.80
2022-08-28T15:09:38.639Z,27.70
2022-08-28T15:12:07.192Z,27.60
2022-08-28T15:14:37.547Z,27.50
2022-08-28T15:17:05.951Z,27.40
2022-08-28T15:19:34.197Z,27.30
2022-08-28T15:22:05.319Z,27.20
2022-08-28T15:24:34.463Z,26.90
2022-08-28T15:27:04.045Z,26.70
2022-08-28T15:29:32.133Z,26.60
2022-08-28T15:32:01.795Z,26.40
2022-08-28T15:34:30.317Z,26.40
2022-08-28T15:36:59.571Z,26.30
2022-08-28T15:39:47.353Z,26.10
2022-08-28T15:42:16.152Z,25.90
2022-08-28T15:44:44.735Z,25.80
2022-08-28T15:47:14.917Z,25.70
2022-08-28T15:49:49.966Z,25.60
2022-08-28T15:52:20.398Z,25.50
2022-08-28T15:54:48.811Z,25.40
2022-08-28T15:57:17.062Z,25.40
2022-08-28T15:59:49.498Z,25.30
2022-08-28T16:02:20.548Z,25.30
2022-08-28T16:04:51.834Z,25.20
2022-08-28T16:07:21.198Z,25.10
2022-08-28T16:09:49.426Z,24.90
2022-08-28T16:12:17.646Z,24.90
2022-08-28T16:14:46.074Z,24.80
2022-08-28T16:17:14.224Z,24.80
2022-08-28T16:19:44.243Z,24.70
2022-08-28T16:22:15.751Z,24.70
2022-08-28T16:24:43.892Z,24.60
2022-08-28T16:27:15.499Z,24.60
2022-08-28T16:29:46.925Z,24.60
2022-08-28T16:32:17.791Z,24.60
2022-08-28T16:34:47.132Z,24.60
2022-08-28T16:37:21.181Z,24.60
2022-08-28T16:39:54.463Z,24.50
2022-08-28T16:42:22.648Z,24.50
2022-08-28T16:44:50.802Z,24.40
2022-08-28T16:47:18.821Z,24.40
2022-08-28T16:49:48.222Z,24.30
2022-08-28T16:52:16.370Z,24.20
2022-08-28T16:54:48.432Z,24.20
2022-08-28T16:57:17.282Z,24.10
2022-08-28T16:59:45.366Z,24.00
2022-08-28T17:02:14.658Z,24.00
2022-08-28T17:04:43.744Z,23.90
2022-08-28T17:07:13.154Z,23.80
2022-08-28T17:09:41.488Z,23.80
2022-08-28T17:12:09.705Z,23.70
2022-08-28T17:14:40.164Z,23.70
2022-08-28T17:17:08.322Z,23.60
2022-08-28T17:19:38.163Z,23.60
2022-08-28T17:22:35.656Z,23.50
2022-08-28T17:25:13.585Z,23.50
2022-08-28T17:27:42.561Z,23.50
2022-08-28T17:30:11.973Z,23.40
2022-08-28T17:32:42.713Z,23.40
2022-08-28T17:35:11.494Z,23.30
2022-08-28T17:37:40.653Z,23.30
2022-08-28T17:40:11.946Z,23.30
2022-08-28T17:42:40.633Z,23.30
2022-08-28T17:45:09.800Z,23.20
2022-08-28T17:47:37.879Z,23.20
2022-08-28T17:50:06.839Z,23.10
2022-08-28T17:52:35.163Z,23.10
2022-08-28T17:55:04.544Z,23.00
2022-08-28T17:57:33.948Z,23.00
2022-08-28T18:00:05.184Z,23.00
2022-08-28T18:02:33.728Z,22.90
2022-08-28T18:05:02.760Z,22.90
2022-08-28T18:07:31.004Z,22.90
2022-08-28T18:09:59.063Z,22.80
2022-08-28T18:12:27.308Z,22.80
2022-08-28T18:14:56.979Z,22.80
2022-08-28T18:17:25.262Z,22.80
2022-08-28T18:19:53.546Z,22.80
2022-08-28T18:22:21.590Z,22.70
2022-08-28T18:24:53.397Z,22.70
2022-08-28T18:27:22.018Z,22.70
2022-08-28T18:29:50.496Z,22.70
2022-08-28T18:32:20.236Z,22.60
2022-08-28T18:34:48.893Z,22.60
2022-08-28T18:37:17.428Z,22.60
2022-08-28T18:39:45.534Z,22.60
2022-08-28T18:42:13.587Z,22.50
2022-08-28T18:44:43.774Z,22.50
2022-08-28T18:47:11.842Z,22.50
2022-08-28T18:49:42.952Z,22.40
2022-08-28T18:52:12.423Z,22.40
2022-08-28T18:54:40.610Z,22.40
2022-08-28T18:57:10.244Z,22.30
2022-08-28T18:59:40.378Z,22.30
2022-08-28T19:02:09.799Z,22.30
2022-08-28T19:04:40.072Z,22.20
2022-08-28T19:07:09.540Z,22.20
2022-08-28T19:09:38.963Z,22.20
2022-08-28T19:12:07.575Z,22.20
2022-08-28T19:14:36.088Z,22.40
2022-08-28T19:17:04.206Z,22.30
2022-08-28T19:19:33.742Z,22.20
2022-08-28T19:22:07.593Z,22.20
2022-08-28T19:24:37.381Z,22.10
2022-08-28T19:27:09.657Z,22.10
2022-08-28T19:29:38.676Z,22.10
2022-08-28T19:32:09.793Z,22.00
2022-08-28T19:34:39.005Z,22.00
2022-08-28T19:37:07.348Z,22.00
2022-08-28T19:39:36.830Z,21.90
2022-08-28T19:42:09.880Z,21.90
2022-08-28T19:44:43.027Z,21.90
2022-08-28T19:47:11.099Z,21.90
2022-08-28T19:49:40.364Z,21.80
2022-08-28T19:52:08.945Z,21.80
2022-08-28T19:54:40.051Z,21.80
2022-08-28T19:57:10.867Z,21.70
2022-08-28T19:59:39.745Z,21.70
2022-08-28T20:02:11.395Z,21.70
2022-08-28T20:04:43.879Z,21.60
2022-08-28T20:07:11.986Z,21.60
2022-08-28T20:09:41.483Z,21.60
2022-08-28T20:12:09.762Z,21.50
2022-08-28T20:14:41.364Z,21.50
2022-08-28T20:17:09.667Z,21.50
2022-08-28T20:19:38.142Z,21.50
2022-08-28T20:22:06.444Z,21.40
2022-08-28T20:24:34.955Z,21.40
2022-08-28T20:27:04.450Z,21.40
2022-08-28T20:29:33.747Z,21.40
2022-08-28T20:32:02.227Z,21.40
2022-08-28T20:34:30.749Z,21.40
2022-08-28T20:36:58.822Z,21.40
2022-08-28T20:39:26.847Z,21.30
2022-08-28T20:41:55.335Z,21.30
2022-08-28T20:44:24.821Z,21.30
2022-08-28T20:46:53.847Z,21.30
2022-08-28T20:49:23.728Z,21.30
2022-08-28T20:51:56.628Z,21.30
2022-08-28T20:54:27.695Z,21.20
2022-08-28T20:56:57.301Z,21.20
2022-08-28T20:59:34.468Z,21.20
2022-08-28T21:02:10.338Z,21.20
2022-08-28T21:04:39.543Z,21.20
2022-08-28T21:07:07.706Z,21.20
2022-08-28T21:10:01.430Z,21.20
2022-08-28T21:12:24.692Z,21.20
2022-08-28T21:14:54.221Z,21.20
2022-08-28T21:17:30.306Z,21.20
2022-08-28T21:20:01.064Z,21.20
2022-08-28T21:22:31.330Z,21.20
2022-08-28T21:24:59.474Z,21.20
2022-08-28T21:27:27.554Z,21.10
2022-08-28T21:29:58.680Z,21.10
2022-08-28T21:32:27.781Z,21.10
2022-08-28T21:34:56.107Z,21.10
2022-08-28T21:37:24.625Z,21.10
2022-08-28T21:39:53.939Z,21.10
2022-08-28T21:42:25.028Z,21.10
2022-08-28T21:44:54.419Z,21.10
2022-08-28T21:47:24.960Z,21.10
2022-08-28T21:49:54.856Z,21.10
2022-08-28T21:52:25.629Z,21.00
2022-08-28T21:54:58.354Z,21.00
2022-08-28T21:57:26.521Z,21.00
2022-08-28T21:59:55.371Z,21.00
2022-08-28T22:02:24.923Z,21.00
2022-08-28T22:04:53.675Z,21.00
2022-08-28T22:07:22.116Z,21.00
2022-08-28T22:09:50.729Z,21.00
2022-08-28T22:12:18.930Z,21.10
2022-08-28T22:14:47.068Z,21.10
2022-08-28T22:17:16.243Z,21.10
2022-08-28T22:19:46.562Z,21.10
2022-08-28T22:22:32.601Z,21.10
2022-08-28T22:25:00.727Z,21.10
2022-08-28T22:27:29.066Z,21.00
2022-08-28T22:29:57.342Z,21.00
2022-08-28T22:32:26.899Z,21.10
2022-08-28T22:34:56.303Z,21.10
2022-08-28T22:37:25.670Z,21.10
2022-08-28T22:39:53.807Z,21.00
2022-08-28T22:42:22.995Z,21.00
2022-08-28T22:44:51.212Z,21.10
2022-08-28T22:47:19.324Z,21.00
2022-08-28T22:49:47.408Z,21.00
2022-08-28T22:52:16.966Z,21.00
2022-08-28T22:54:44.999Z,21.00
2022-08-28T22:57:13.119Z,21.00
2022-08-28T22:59:42.131Z,21.00
2022-08-28T23:02:10.156Z,21.00
2022-08-28T23:04:38.205Z,20.90
2022-08-28T23:07:06.722Z,21.00
2022-08-28T23:09:37.059Z,21.00
2022-08-28T23:12:07.365Z,21.00
2022-08-28T23:14:35.413Z,21.00
2022-08-28T23:17:03.609Z,21.00
2022-08-28T23:19:32.450Z,21.00
2022-08-28T23:22:01.035Z,21.00
2022-08-28T23:24:31.354Z,21.00
2022-08-28T23:27:19.480Z,21.00
2022-08-28T23:29:53.128Z,21.00
2022-08-28T23:32:21.632Z,21.00
2022-08-28T23:34:50.328Z,20.90
2022-08-28T23:37:18.752Z,21.00
2022-08-28T23:39:46.788Z,20.90
2022-08-28T23:42:17.064Z,20.90
2022-08-28T23:44:45.602Z,20.90
2022-08-28T23:47:13.776Z,20.90
2022-08-28T23:49:42.942Z,20.90
2022-08-28T23:52:11.081Z,20.90
2022-08-28T23:54:40.513Z,20.90
2022-08-28T23:57:09.360Z,20.80
2022-08-28T23:59:40.553Z,20.90
